Time;durP1;ratioP1;P1;durP2;ratioP2;P2;SDS_P1;SDS_P2;PMS_P1;PMS_P2;Temp;Humidity;BMP_temperature;BMP_pressure;BME280_temperature;BME280_humidity;BME280_pressure;Samples;Min_cycle;Max_cycle;Signal;HPM_P1;HPM_P2
2022/06/08 00:00:34;;;;;;;27.70;16.70;;;;;;;-146.64;100.00;118402.03;5047541;28;20345;-80
2022/06/08 00:03:08;;;;;;;26.10;17.98;;;;;;;-146.64;100.00;118402.03;5035651;28;20547;-81
2022/06/08 00:05:33;;;;;;;27.25;17.45;;;;;;;-146.64;100.00;118402.03;5039137;28;20032;-80
2022/06/08 00:07:59;;;;;;;25.57;17.73;;;;;;;-146.64;100.00;118402.03;5047706;28;20029;-80
2022/06/08 00:10:24;;;;;;;25.23;17.37;;;;;;;-146.64;100.00;118402.03;5070669;28;20116;-81
2022/06/08 00:12:49;;;;;;;31.30;19.57;;;;;;;-146.64;100.00;118402.03;5072041;28;20090;-80
2022/06/08 00:15:15;;;;;;;29.80;20.93;;;;;;;-146.64;100.00;118402.03;5036540;28;20040;-80
2022/06/08 00:17:40;;;;;;;28.30;19.17;;;;;;;-146.64;100.00;118402.03;5052814;28;20120;-81
2022/06/08 00:20:07;;;;;;;31.93;18.63;;;;;;;-146.64;100.00;118402.03;5051769;28;20474;-81
2022/06/08 00:22:33;;;;;;;26.75;18.92;;;;;;;-146.64;100.00;118402.03;5052231;28;20082;-80
2022/06/08 00:24:58;;;;;;;31.33;20.37;;;;;;;-146.64;100.00;118402.03;5052342;28;20040;-80
2022/06/08 00:27:24;;;;;;;24.00;18.43;;;;;;;-146.64;100.00;118402.03;5050979;28;20032;-80
2022/06/08 00:29:49;;;;;;;26.87;19.43;;;;;;;-146.64;100.00;118402.03;5070235;28;20562;-80
2022/06/08 00:32:14;;;;;;;28.20;19.23;;;;;;;-146.64;100.00;118402.03;5044174;28;20074;-80
2022/06/08 00:34:40;;;;;;;28.30;19.67;;;;;;;-146.64;100.00;118402.03;5051056;28;20035;-80
2022/06/08 00:37:05;;;;;;;28.77;20.10;;;;;;;-146.64;100.00;118402.03;5068802;28;20095;-79
2022/06/08 00:39:31;;;;;;;30.60;19.77;;;;;;;-146.64;100.00;118402.03;5038644;28;20064;-80
2022/06/08 00:42:02;;;;;;;26.93;19.53;;;;;;;-146.64;100.00;118402.03;5039015;28;20028;-81
2022/06/08 00:44:45;;;;;;;29.08;19.88;;;;;;;-146.64;100.00;118402.03;5038563;28;20074;-81
2022/06/08 00:47:13;;;;;;;25.23;18.95;;;;;;;-146.64;100.00;118402.03;5071545;28;20036;-81
2022/06/08 00:49:44;;;;;;;25.52;19.58;;;;;;;-146.64;100.00;118402.03;5055751;28;20383;-80
2022/06/08 00:52:12;;;;;;;30.67;19.98;;;;;;;-146.64;100.00;118402.03;5071118;28;20525;-80
2022/06/08 00:54:40;;;;;;;25.60;19.20;;;;;;;-146.64;100.00;118402.03;5055204;28;20033;-80
2022/06/08 00:57:23;;;;;;;22.67;18.35;;;;;;;-146.64;100.00;118402.03;5063712;28;20060;-81
2022/06/08 01:00:03;;;;;;;28.95;19.33;;;;;;;-146.64;100.00;118402.03;5054267;28;20024;-80
2022/06/08 01:02:29;;;;;;;27.10;18.38;;;;;;;-146.64;100.00;118402.03;5054935;28;20042;-80
2022/06/08 01:05:19;;;;;;;27.80;20.00;;;;;;;-146.64;100.00;118402.03;5053743;28;20336;-81
2022/06/08 01:07:44;;;;;;;25.27;18.33;;;;;;;-146.64;100.00;118402.03;5055253;28;20124;-81
2022/06/08 01:10:14;;;;;;;25.90;18.83;;;;;;;-146.64;100.00;118402.03;5051703;28;20037;-80
2022/06/08 01:12:39;;;;;;;29.02;17.80;;;;;;;-146.64;100.00;118402.03;5019810;28;20118;-80
2022/06/08 01:15:05;;;;;;;25.63;17.23;;;;;;;-146.64;100.00;118402.03;5041830;28;20052;-81
2022/06/08 01:17:30;;;;;;;29.83;17.87;;;;;;;-146.64;100.00;118402.03;5036529;28;20016;-81
2022/06/08 01:19:56;;;;;;;25.00;17.10;;;;;;;-146.64;100.00;118402.03;5054644;28;20115;-80
2022/06/08 01:22:21;;;;;;;28.33;17.57;;;;;;;-146.64;100.00;118402.03;5054159;28;20383;-80
2022/06/08 01:24:49;;;;;;;23.73;17.17;;;;;;;-146.64;100.00;118402.03;5064291;28;20082;-80
2022/06/08 01:27:26;;;;;;;31.98;17.63;;;;;;;-146.64;100.00;118402.03;5047547;28;20077;-80
2022/06/08 01:30:21;;;;;;;25.65;17.77;;;;;;;-146.64;100.00;118402.03;5072044;28;20043;-80
2022/06/08 01:33:01;;;;;;;27.25;16.95;;;;;;;-146.64;100.00;118402.03;5052418;28;20032;-81
2022/06/08 01:35:32;;;;;;;28.70;18.23;;;;;;;-146.64;100.00;118402.03;5054193;28;20039;-79
2022/06/08 01:38:35;;;;;;;24.73;17.88;;;;;;;-146.64;100.00;118402.03;5068895;28;20047;-81
2022/06/08 01:41:05;;;;;;;29.45;17.13;;;;;;;-146.64;100.00;118402.03;5053809;28;20035;-80
2022/06/08 01:43:42;;;;;;;26.83;17.95;;;;;;;-146.64;100.00;118402.03;5034123;28;20037;-80
2022/06/08 01:46:13;;;;;;;;;;;;;;;-146.64;100.00;118402.03;5059748;28;20056;-80
2022/06/08 01:49:10;;;;;;;24.90;16.73;;;;;;;-146.64;100.00;118402.03;5049899;28;19917;-80
2022/06/08 01:51:55;;;;;;;25.10;16.70;;;;;;;-146.64;100.00;118402.03;5058313;28;20021;-80
2022/06/08 01:54:27;;;;;;;22.58;16.77;;;;;;;-146.64;100.00;118402.03;5053823;28;20487;-80
2022/06/08 01:57:22;;;;;;;22.90;17.42;;;;;;;-146.64;100.00;118402.03;5073081;28;20060;-80
2022/06/08 01:59:51;;;;;;;23.50;17.65;;;;;;;-146.64;100.00;118402.03;5074487;28;20025;-80
2022/06/08 02:02:42;;;;;;;24.05;16.17;;;;;;;-146.64;100.00;118402.03;5065053;28;20044;-80
2022/06/08 02:05:30;;;;;;;25.58;17.08;;;;;;;-146.64;100.00;118402.03;5016537;28;20043;-81
2022/06/08 02:07:58;;;;;;;21.58;16.40;;;;;;;-146.64;100.00;118402.03;5053136;28;20064;-80
2022/06/08 02:10:57;;;;;;;23.33;17.40;;;;;;;-146.64;100.00;118402.03;5053759;28;20029;-80
2022/06/08 02:13:27;;;;;;;25.40;17.38;;;;;;;-146.64;100.00;118402.03;5034494;28;20035;-80
2022/06/08 02:15:57;;;;;;;25.35;18.08;;;;;;;-146.64;100.00;118402.03;5046613;28;20429;-80
2022/06/08 02:18:29;;;;;;;25.17;16.67;;;;;;;-146.64;100.00;118402.03;5052340;28;20483;-79
2022/06/08 02:21:00;;;;;;;22.55;16.45;;;;;;;-146.64;100.00;118402.03;5034432;28;20388;-80
2022/06/08 02:23:30;;;;;;;26.40;16.85;;;;;;;-146.64;100.00;118402.03;5036313;28;20117;-80
2022/06/08 02:26:08;;;;;;;25.88;15.88;;;;;;;-146.64;100.00;118402.03;5051943;28;20028;-80
2022/06/08 02:28:35;;;;;;;20.83;15.15;;;;;;;-146.64;100.00;118402.03;5071026;28;20029;-80
2022/06/08 02:31:10;;;;;;;20.23;14.77;;;;;;;-146.64;100.00;118402.03;5068349;28;20448;-79
2022/06/08 02:36:28;;;;;;;22.88;15.13;;;;;;;-146.64;100.00;118402.03;5056323;28;20027;-79
2022/06/08 02:39:03;;;;;;;23.60;15.25;;;;;;;-146.64;100.00;118402.03;5039483;28;20029;-80
2022/06/08 02:41:29;;;;;;;22.60;14.95;;;;;;;-146.64;100.00;118402.03;5065549;28;20027;-80
2022/06/08 02:44:02;;;;;;;24.25;15.70;;;;;;;-146.64;100.00;118402.03;5053304;28;21338;-81
2022/06/08 02:46:48;;;;;;;24.50;14.10;;;;;;;-146.64;100.00;118402.03;5067791;28;20384;-80
2022/06/08 02:49:13;;;;;;;20.38;14.95;;;;;;;-146.64;100.00;118402.03;5054539;28;20379;-80
2022/06/08 02:51:47;;;;;;;24.30;15.60;;;;;;;-146.64;100.00;118402.03;5043679;28;20111;-80
2022/06/08 02:54:17;;;;;;;20.58;14.65;;;;;;;-146.64;100.00;118402.03;5034538;28;20024;-81
2022/06/08 02:57:00;;;;;;;22.00;14.68;;;;;;;-146.64;100.00;118402.03;5052536;28;20067;-81
2022/06/08 02:59:49;;;;;;;25.00;15.10;;;;;;;-146.64;100.00;118402.03;5036605;28;20127;-80
2022/06/08 03:02:34;;;;;;;21.02;14.30;;;;;;;-146.64;100.00;118402.03;5045919;28;20068;-80
2022/06/08 03:05:08;;;;;;;19.35;15.18;;;;;;;-146.64;100.00;118402.03;5069281;28;20024;-81
2022/06/08 03:07:50;;;;;;;24.05;15.75;;;;;;;-146.64;100.00;118402.03;5053148;28;20111;-80
2022/06/08 03:10:17;;;;;;;21.65;14.75;;;;;;;-146.64;100.00;118402.03;5063800;28;20033;-79
2022/06/08 03:12:49;;;;;;;23.60;14.88;;;;;;;-146.64;100.00;118402.03;5051395;28;20033;-80
2022/06/08 03:15:15;;;;;;;19.33;13.85;;;;;;;-146.64;100.00;118402.03;5044280;28;20033;-79
2022/06/08 03:17:43;;;;;;;33.13;14.85;;;;;;;-146.64;100.00;118402.03;5049499;28;20048;-80
2022/06/08 03:20:09;;;;;;;19.00;12.95;;;;;;;-146.64;100.00;118402.03;5062349;28;20039;-80
2022/06/08 03:22:35;;;;;;;18.90;13.87;;;;;;;-146.64;100.00;118402.03;5036267;28;20028;-80
2022/06/08 03:25:01;;;;;;;17.33;12.73;;;;;;;-146.64;100.00;118402.03;5068581;28;20086;-80
2022/06/08 03:27:26;;;;;;;19.43;13.40;;;;;;;-146.64;100.00;118402.03;5052831;28;20044;-80
2022/06/08 03:29:52;;;;;;;19.40;13.17;;;;;;;-146.64;100.00;118402.03;5033987;28;20494;-80
2022/06/08 03:32:17;;;;;;;19.00;13.30;;;;;;;-146.64;100.00;118402.03;5043345;28;20036;-80
2022/06/08 03:34:43;;;;;;;21.43;12.50;;;;;;;-146.64;100.00;118402.03;5033469;28;20043;-80
2022/06/08 03:37:09;;;;;;;15.23;12.07;;;;;;;-146.64;100.00;118402.03;5053574;28;20391;-80
2022/06/08 03:39:34;;;;;;;18.10;11.82;;;;;;;-146.64;100.00;118402.03;5033005;28;20096;-80
2022/06/08 03:42:00;;;;;;;18.80;12.50;;;;;;;-146.64;100.00;118402.03;5056869;28;20107;-80
2022/06/08 03:44:25;;;;;;;22.93;12.17;;;;;;;-146.64;100.00;118402.03;5028735;28;20051;-80
2022/06/08 03:46:54;;;;;;;16.97;11.20;;;;;;;-146.64;100.00;118402.03;5050674;28;20059;-80
2022/06/08 03:49:20;;;;;;;14.77;11.45;;;;;;;-146.64;100.00;118402.03;5048637;28;20523;-80
2022/06/08 03:51:46;;;;;;;19.40;11.87;;;;;;;-146.64;100.00;118402.03;5051360;28;20115;-80
2022/06/08 03:54:16;;;;;;;16.30;11.37;;;;;;;-146.64;100.00;118402.03;5052753;28;20028;-79
2022/06/08 03:56:44;;;;;;;14.27;10.07;;;;;;;-146.64;100.00;118402.03;5051780;28;20033;-80
2022/06/08 03:59:09;;;;;;;14.02;10.35;;;;;;;-146.64;100.00;118402.03;5050819;28;20444;-81
2022/06/08 04:01:36;;;;;;;17.27;10.43;;;;;;;-146.64;100.00;118402.03;5033842;28;20044;-81
2022/06/08 04:04:02;;;;;;;;;;;;;;;-146.64;100.00;118402.03;5053042;28;20028;-80
2022/06/08 04:06:27;;;;;;;14.88;10.73;;;;;;;-146.64;100.00;118402.03;5050628;28;19916;-80
2022/06/08 04:08:53;;;;;;;16.63;10.40;;;;;;;-146.64;100.00;118402.03;5068620;28;20024;-81
2022/06/08 04:11:18;;;;;;;15.63;9.67;;;;;;;-146.64;100.00;118402.03;5037240;28;20028;-80
2022/06/08 04:13:44;;;;;;;13.47;9.80;;;;;;;-146.64;100.00;118402.03;5061588;28;20048;-80
2022/06/08 04:16:09;;;;;;;12.70;9.63;;;;;;;-146.64;100.00;118402.03;5073041;28;20071;-81
2022/06/08 04:18:35;;;;;;;14.13;9.50;;;;;;;-146.64;100.00;118402.03;5074324;28;20386;-80
2022/06/08 04:21:03;;;;;;;12.30;9.37;;;;;;;-146.64;100.00;118402.03;5067772;28;20052;-80
2022/06/08 04:23:30;;;;;;;13.77;10.77;;;;;;;-146.64;100.00;118402.03;5050170;28;20055;-80
2022/06/08 04:25:56;;;;;;;14.52;10.43;;;;;;;-146.64;100.00;118402.03;5036540;28;20029;-80
2022/06/08 04:28:22;;;;;;;17.27;9.88;;;;;;;-146.64;100.00;118402.03;5049931;28;20028;-80
2022/06/08 04:30:48;;;;;;;13.73;9.47;;;;;;;-146.64;100.00;118402.03;5055300;28;20029;-81
2022/06/08 04:33:15;;;;;;;13.87;10.47;;;;;;;-146.64;100.00;118402.03;5075046;28;20066;-81
2022/06/08 04:35:41;;;;;;;13.10;9.50;;;;;;;-146.64;100.00;118402.03;5037413;28;20033;-81
2022/06/08 04:38:07;;;;;;;11.48;9.43;;;;;;;-146.64;100.00;118402.03;5072765;28;20500;-81
2022/06/08 04:40:33;;;;;;;18.87;9.10;;;;;;;-146.64;100.00;118402.03;5054556;28;20097;-81
2022/06/08 04:42:59;;;;;;;14.30;9.52;;;;;;;-146.64;100.00;118402.03;5055140;28;20044;-80
2022/06/08 04:45:25;;;;;;;13.63;9.53;;;;;;;-146.64;100.00;118402.03;5051615;28;20124;-80
2022/06/08 04:47:50;;;;;;;15.57;9.85;;;;;;;-146.64;100.00;118402.03;5070820;28;20036;-80
2022/06/08 04:50:16;;;;;;;13.17;8.57;;;;;;;-146.64;100.00;118402.03;5055217;28;20036;-80
2022/06/08 04:52:41;;;;;;;13.93;9.60;;;;;;;-146.64;100.00;118402.03;5055018;28;20039;-80
2022/06/08 04:55:09;;;;;;;12.37;8.63;;;;;;;-146.64;100.00;118402.03;5070719;28;20029;-81
2022/06/08 04:57:37;;;;;;;12.18;9.02;;;;;;;-146.64;100.00;118402.03;5049610;28;20086;-79
2022/06/08 05:00:09;;;;;;;12.65;8.60;;;;;;;-146.64;100.00;118402.03;5056457;28;20035;-80
2022/06/08 05:02:49;;;;;;;11.50;9.07;;;;;;;-146.64;100.00;118402.03;5058993;28;20406;-80
2022/06/08 05:05:20;;;;;;;14.85;8.98;;;;;;;-146.64;100.00;118402.03;5041043;28;20025;-80
2022/06/08 05:07:46;;;;;;;11.45;8.43;;;;;;;-146.64;100.00;118402.03;5055429;28;20029;-79
2022/06/08 05:10:12;;;;;;;14.10;8.82;;;;;;;-146.64;100.00;118402.03;5032593;28;20025;-81
2022/06/08 05:12:39;;;;;;;14.50;8.70;;;;;;;-146.64;100.00;118402.03;5070329;28;20032;-80
2022/06/08 05:15:07;;;;;;;;;;;;;;;-146.64;100.00;118402.03;5051583;28;20048;-79
2022/06/08 05:17:33;;;;;;;12.07;8.50;;;;;;;-146.64;100.00;118402.03;5069473;28;20026;-79
2022/06/08 05:19:59;;;;;;;12.73;8.52;;;;;;;-146.64;100.00;118402.03;5053311;28;20479;-80
2022/06/08 05:22:24;;;;;;;13.73;8.20;;;;;;;-146.64;100.00;118402.03;5072204;28;20129;-80
2022/06/08 05:24:49;;;;;;;13.77;8.73;;;;;;;-146.64;100.00;118402.03;5052576;28;20041;-79
2022/06/08 05:27:16;;;;;;;10.37;8.73;;;;;;;-146.64;100.00;118402.03;5054609;28;20040;-79
2022/06/08 05:29:42;;;;;;;13.90;8.95;;;;;;;-146.64;100.00;118402.03;5069348;28;20033;-78
2022/06/08 05:32:07;;;;;;;10.93;7.70;;;;;;;-146.64;100.00;118402.03;5052140;28;20058;-80
2022/06/08 05:34:32;;;;;;;12.97;9.10;;;;;;;-146.64;100.00;118402.03;5070440;28;20032;-79
2022/06/08 05:36:58;;;;;;;13.13;8.03;;;;;;;-146.64;100.00;118402.03;5035811;28;20025;-81
2022/06/08 05:39:23;;;;;;;17.40;7.77;;;;;;;-146.64;100.00;118402.03;5048457;28;20381;-79
2022/06/08 05:41:49;;;;;;;16.27;9.20;;;;;;;-146.64;100.00;118402.03;5072179;28;20033;-80
2022/06/08 05:44:15;;;;;;;13.70;8.97;;;;;;;-146.64;100.00;116530.09;5054400;28;20062;-79
2022/06/08 05:46:40;;;;;;;11.73;7.80;;;;;;;-146.64;100.00;111992.59;5071669;28;20051;-79
2022/06/08 05:49:06;;;;;;;15.50;7.87;;;;;;;-146.64;100.00;110125.69;5057463;28;20044;-79
2022/06/08 05:51:31;;;;;;;12.70;7.77;;;;;;;-146.64;100.00;109859.06;5053041;28;20044;-80
2022/06/08 05:53:56;;;;;;;12.23;8.20;;;;;;;-146.64;100.00;111992.59;5050037;28;20039;-80
2022/06/08 05:56:22;;;;;;;12.90;8.13;;;;;;;-146.64;100.00;111725.84;5066675;28;20028;-79
2022/06/08 05:58:47;;;;;;;11.17;7.33;;;;;;;-146.64;100.00;113059.81;5053105;28;20020;-80
2022/06/08 06:01:12;;;;;;;11.90;8.30;;;;;;;-146.64;100.00;112792.97;5069591;28;20107;-80
2022/06/08 06:03:38;;;;;;;10.00;7.67;;;;;;;-146.64;100.00;109859.06;5041011;28;20028;-80
2022/06/08 06:06:03;;;;;;;12.33;7.87;;;;;;;-146.64;100.00;107460.16;5053065;28;20033;-80
2022/06/08 06:08:28;;;;;;;11.47;7.90;;;;;;;-146.64;100.00;107460.16;5054856;28;20169;-79
2022/06/08 06:10:54;;;;;;;10.17;7.27;;;;;;;-146.64;100.00;105329.00;5035947;28;20109;-80
2022/06/08 06:13:20;;;;;;;9.93;7.10;;;;;;;-146.64;100.00;102400.44;5072110;28;20040;-80
2022/06/08 06:15:46;;;;;;;13.95;7.05;;;;;;;-146.64;100.00;99208.09;5068128;28;20035;-80
2022/06/08 06:18:12;;;;;;;10.13;6.53;;;;;;;-146.64;100.00;90972.78;5051365;28;20105;-81
2022/06/08 06:20:38;;;;;;;14.03;6.07;;;;;;;-146.64;100.00;90176.72;5070140;28;20060;-80
2022/06/08 06:23:03;;;;;;;7.47;5.65;;;;;;;-146.64;100.00;96283.97;5070388;28;20041;-80
2022/06/08 06:25:29;;;;;;;6.33;4.90;;;;;;;-146.64;100.00;98144.53;5048890;28;20039;-79
2022/06/08 06:27:54;;;;;;;12.03;5.93;;;;;;;-146.64;100.00;96018.25;5067213;28;20036;-79
2022/06/08 06:30:19;;;;;;;11.17;5.87;;;;;;;-146.64;100.00;97612.84;5046380;28;20062;-78
2022/06/08 06:32:46;;;;;;;8.10;4.97;;;;;;;-146.64;100.00;93893.06;5035680;28;20157;-79
2022/06/08 06:35:25;;;;;;;17.48;4.88;;;;;;;-146.64;100.00;99474.03;5052353;28;20028;-80
2022/06/08 06:37:51;;;;;;;10.07;4.75;;;;;;;-146.64;100.00;97347.03;5036677;28;20048;-80
2022/06/08 06:40:17;;;;;;;9.05;4.75;;;;;;;-146.64;100.00;98676.28;5051819;28;20050;-80
2022/06/08 06:42:43;;;;;;;11.20;5.00;;;;;;;-146.64;100.00;99474.03;5052783;28;20526;-81
2022/06/08 06:45:09;;;;;;;10.00;5.20;;;;;;;-146.64;100.00;99474.03;5041612;28;20428;-79
2022/06/08 06:47:35;;;;;;;12.50;5.18;;;;;;;-146.64;100.00;101602.13;5022521;28;20031;-78
2022/06/08 06:50:01;;;;;;;16.57;4.67;;;;;;;-146.64;100.00;101070.00;5030545;28;20020;-77
2022/06/08 06:52:26;;;;;;;9.02;5.75;;;;;;;-146.64;100.00;97878.69;5066554;28;22687;-78
2022/06/08 06:54:51;;;;;;;11.70;5.03;;;;;;;-146.64;100.00;96283.97;5035722;28;20119;-79
2022/06/08 06:57:17;;;;;;;13.33;5.47;;;;;;;-146.64;100.00;96815.47;5032670;28;20052;-79
2022/06/08 06:59:42;;;;;;;7.90;4.67;;;;;;;-146.64;100.00;94424.25;5058172;28;20040;-79
2022/06/08 07:02:17;;;;;;;8.20;5.60;;;;;;;-146.64;100.00;95752.53;5067845;28;20041;-79
2022/06/08 07:04:43;;;;;;;7.45;4.65;;;;;;;-146.64;100.00;91503.59;5050646;28;20026;-79
2022/06/08 07:07:09;;;;;;;6.43;4.53;;;;;;;-146.64;100.00;92034.47;5053102;28;20025;-79
2022/06/08 07:09:34;;;;;;;10.10;5.72;;;;;;;-146.64;100.00;93361.97;5043840;28;20024;-78
2022/06/08 07:12:00;;;;;;;10.60;4.53;;;;;;;-146.64;100.00;95221.19;5066967;28;20404;-76
2022/06/08 07:14:29;;;;;;;11.70;5.00;;;;;;;-146.64;100.00;90707.41;5049837;28;20060;-78
2022/06/08 07:16:54;;;;;;;9.05;4.88;;;;;;;-146.64;100.00;94689.88;5050586;28;20028;-79
2022/06/08 07:19:21;;;;;;;9.20;4.43;;;;;;;-146.64;100.00;94955.53;5046490;28;20752;-77
2022/06/08 07:21:46;;;;;;;13.23;4.97;;;;;;;-146.64;100.00;94158.66;5047673;28;20029;-79
2022/06/08 07:24:17;;;;;;;10.97;5.43;;;;;;;-146.64;100.00;96018.25;5046161;28;20016;-77
2022/06/08 07:26:42;;;;;;;11.10;4.22;;;;;;;-146.64;100.00;88319.81;5051569;28;20119;-79
2022/06/08 07:29:08;;;;;;;8.87;4.00;;;;;;;-146.64;100.00;84608.59;5051122;28;20104;-78
2022/06/08 07:31:33;;;;;;;10.70;5.07;;;;;;;-146.64;100.00;68214.31;5032652;28;20037;-80
2022/06/08 07:33:59;;;;;;;9.77;4.67;;;;;;;-146.64;100.00;62676.59;5065716;28;20040;-79
2022/06/08 07:36:24;;;;;;;6.20;4.03;;;;;;;-146.64;100.00;60042.31;5031173;28;20108;-79
2022/06/08 07:38:50;;;;;;;10.67;3.87;;;;;;;-146.64;100.00;60305.66;5046212;28;20047;-79
2022/06/08 07:41:15;;;;;;;9.30;4.10;;;;;;;-146.64;100.00;49534.91;5068691;28;20123;-78
2022/06/08 07:43:41;;;;;;;6.37;4.40;;;;;;;-146.64;100.00;61622.69;5066202;28;20050;-78
2022/06/08 07:46:06;;;;;;;12.70;4.50;;;;;;;-146.64;100.00;68478.19;5065395;28;20458;-79
2022/06/08 07:51:16;;;;;;;12.25;4.85;;;;;;;-146.64;100.00;64521.66;5047698;28;20395;-78
2022/06/08 07:53:42;;;;;;;11.27;4.70;;;;;;;-146.64;100.00;65576.34;5056459;28;20033;-79
2022/06/08 07:56:07;;;;;;;8.63;4.30;;;;;;;-146.64;100.00;70325.94;5059467;28;20028;-79
2022/06/08 07:58:33;;;;;;;13.43;4.70;;;;;;;-146.64;100.00;64521.66;5045411;28;20025;-79
2022/06/08 08:00:58;;;;;;;17.40;5.13;;;;;;;-146.64;100.00;63994.41;5062076;28;20025;-79
2022/06/08 08:03:25;;;;;;;10.13;5.00;;;;;;;-146.64;100.00;71910.38;5039372;28;20028;-79
2022/06/08 08:05:51;;;;;;;9.82;5.05;;;;;;;-146.64;100.00;70061.91;5051119;28;20039;-79
2022/06/08 08:08:17;;;;;;;10.27;5.25;;;;;;;-146.64;100.00;66895.09;5063184;28;20042;-80
2022/06/08 08:10:42;;;;;;;16.00;7.10;;;;;;;-146.64;100.00;66631.31;5034930;28;20020;-80
2022/06/08 08:13:08;;;;;;;12.53;6.43;;;;;;;-146.64;100.00;72702.84;5034623;28;20024;-77
2022/06/08 08:15:34;;;;;;;11.73;6.20;;;;;;;-146.64;100.00;69797.91;5032912;28;20892;-77
2022/06/08 08:17:59;;;;;;;13.20;5.65;;;;;;;-146.64;100.00;69006.03;5051430;28;20036;-77
2022/06/08 08:20:27;;;;;;;9.83;6.23;;;;;;;-146.64;100.00;63467.22;5049104;28;20055;-76
2022/06/08 08:22:52;;;;;;;8.93;5.30;;;;;;;-146.64;100.00;70854.00;5034766;28;20028;-80
2022/06/08 08:25:18;;;;;;;10.93;4.90;;;;;;;-146.64;100.00;70325.94;5050149;28;20039;-80
2022/06/08 08:27:45;;;;;;;13.48;4.57;;;;;;;-146.64;100.00;74288.22;5042771;28;20024;-80
2022/06/08 08:30:16;;;;;;;9.23;4.43;;;;;;;-146.64;100.00;65048.97;5062301;28;20567;-78
2022/06/08 08:32:42;;;;;;;9.50;4.35;;;;;;;-146.64;100.00;69269.97;5063661;28;20624;-77
2022/06/08 08:35:08;;;;;;;11.30;4.03;;;;;;;-146.64;100.00;71910.38;5059968;28;20043;-77
2022/06/08 08:37:33;;;;;;;11.98;3.85;;;;;;;-146.64;100.00;71118.06;5050545;28;20028;-77
2022/06/08 08:39:58;;;;;;;10.27;4.50;;;;;;;-146.64;100.00;73231.22;5068733;28;20111;-78
2022/06/08 08:42:24;;;;;;;7.63;4.10;;;;;;;-146.64;100.00;74023.97;5039119;28;20041;-79
2022/06/08 08:45:29;;;;;;;11.20;4.38;;;;;;;-146.64;100.00;81959.81;5062488;28;20032;-79
2022/06/08 08:48:03;;;;;;;10.57;4.57;;;;;;;-146.64;100.00;80106.72;4950678;28;20169;-78
2022/06/08 08:50:52;;;;;;;8.52;3.75;;;;;;;-146.64;100.00;80636.09;5025709;28;20064;-79
2022/06/08 08:53:38;;;;;;;8.70;4.65;;;;;;;-146.64;100.00;77725.41;5050122;28;20024;-77
2022/06/08 08:56:10;;;;;;;12.70;4.35;;;;;;;-146.64;100.00;81165.53;5069332;28;20111;-78
2022/06/08 08:58:39;;;;;;;9.57;4.80;;;;;;;-146.64;100.00;81959.81;5044239;28;20032;-78
2022/06/08 09:01:24;;;;;;;10.45;5.45;;;;;;;-146.64;100.00;80636.09;5039412;28;20017;-78
2022/06/08 09:03:56;;;;;;;12.73;5.50;;;;;;;-146.64;100.00;77196.41;5049706;28;20407;-79
2022/06/08 09:06:26;;;;;;;12.20;5.28;;;;;;;-146.64;100.00;75874.25;5048644;28;20376;-79
2022/06/08 09:08:53;;;;;;;9.55;4.28;;;;;;;-146.64;100.00;79577.41;5041700;28;20157;-78
2022/06/08 09:11:29;;;;;;;10.43;3.97;;;;;;;-146.64;100.00;77196.41;5051644;28;20080;-78
2022/06/08 09:14:08;;;;;;;8.38;2.67;;;;;;;-146.64;100.00;75609.88;5055620;28;20037;-78
2022/06/08 09:16:43;;;;;;;13.57;3.35;;;;;;;-146.64;100.00;77460.91;5068796;28;20440;-79
2022/06/08 09:19:21;;;;;;;9.60;2.83;;;;;;;-146.64;100.00;74552.53;5032343;28;20381;-76
2022/06/08 09:21:48;;;;;;;9.95;2.42;;;;;;;-146.64;100.00;66895.09;5038886;28;20033;-78
2022/06/08 09:24:24;;;;;;;9.80;2.40;;;;;;;-146.64;100.00;72967.03;5062689;28;20526;-81
2022/06/08 09:26:54;;;;;;;10.90;2.17;;;;;;;-146.64;100.00;79577.41;5056322;28;20425;-81
2022/06/08 09:29:26;;;;;;;7.93;2.13;;;;;;;-146.64;100.00;87524.28;5048169;28;20016;-81
2022/06/08 09:31:52;;;;;;;4.70;1.90;;;;;;;-146.64;100.00;93096.44;5033855;28;20041;-82
2022/06/08 09:34:29;;;;;;;6.80;2.30;;;;;;;-146.64;100.00;99208.09;5057534;28;20047;-81
2022/06/08 09:37:12;;;;;;;6.22;2.38;;;;;;;-146.64;100.00;102134.31;5064134;28;20040;-80
2022/06/08 09:39:39;;;;;;;14.90;2.53;;;;;;;-146.64;100.00;103731.34;5052056;28;20462;-80
2022/06/08 09:42:57;;;;;;;13.40;3.13;;;;;;;-146.64;100.00;109059.28;5046384;28;20067;-80
2022/06/08 09:45:37;;;;;;;10.60;2.90;;;;;;;-146.64;100.00;110392.34;5048215;28;20028;-80
2022/06/08 09:51:52;;;;;;;11.85;2.95;;;;;;;-146.64;100.00;113059.81;5070252;28;20048;-79
2022/06/08 09:54:22;;;;;;;12.75;3.13;;;;;;;-146.64;100.00;115195.03;5066707;28;20028;-79
2022/06/08 09:57:00;;;;;;;21.23;3.15;;;;;;;-146.64;100.00;116263.06;5064768;28;20037;-79
2022/06/08 09:59:47;;;;;;;13.32;3.55;;;;;;;-146.64;100.00;116530.09;5068357;28;20032;-79
2022/06/08 10:02:25;;;;;;;15.13;2.80;;;;;;;-146.64;100.00;117331.34;5044388;28;20090;-80
2022/06/08 10:05:00;;;;;;;14.02;3.83;;;;;;;-146.64;100.00;118132.78;5067835;28;20100;-79
2022/06/08 10:07:35;;;;;;;10.30;3.13;;;;;;;-146.64;100.00;118402.03;5049835;28;20561;-79
2022/06/08 10:10:23;;;;;;;10.88;3.60;;;;;;;-146.64;100.00;118402.03;5052486;28;20068;-79
2022/06/08 10:13:00;;;;;;;15.27;3.83;;;;;;;-146.64;100.00;118402.03;5069734;28;20459;-79
2022/06/08 10:15:47;;;;;;;12.60;3.72;;;;;;;-146.64;100.00;118402.03;5030370;28;20031;-78
2022/06/08 10:18:27;;;;;;;12.98;3.88;;;;;;;-146.64;100.00;118399.94;5053825;28;20025;-78
2022/06/08 10:21:18;;;;;;;12.50;4.18;;;;;;;-146.64;100.00;118402.03;5047639;28;20153;-78
2022/06/08 10:24:07;;;;;;;16.13;4.80;;;;;;;-146.64;100.00;118402.03;5037751;28;20045;-79
2022/06/08 10:26:48;;;;;;;14.15;4.90;;;;;;;-146.64;100.00;118402.03;5049626;28;20036;-78
2022/06/08 10:29:16;;;;;;;13.55;3.47;;;;;;;-146.64;100.00;118399.94;5054005;28;20039;-79
2022/06/08 10:31:48;;;;;;;10.65;3.08;;;;;;;-146.64;100.00;117064.25;5058112;28;20035;-79
2022/06/08 10:34:23;;;;;;;5.78;2.70;;;;;;;-146.64;100.00;117598.47;5073837;28;20418;-79
2022/06/08 10:36:51;;;;;;;11.63;2.92;;;;;;;-146.64;100.00;117598.47;5059672;28;20031;-79
2022/06/08 10:39:18;;;;;;;9.40;2.85;;;;;;;-146.64;100.00;117064.25;5055055;28;20024;-79
2022/06/08 10:44:48;;;;;;;7.70;2.33;;;;;;;-146.64;100.00;118132.78;5055227;28;20047;-79
2022/06/08 10:47:13;;;;;;;6.82;2.25;;;;;;;-146.64;100.00;118399.94;5072155;28;20059;-79
2022/06/08 10:49:38;;;;;;;7.27;2.40;;;;;;;-146.64;100.00;118402.03;5071411;28;20047;-79
2022/06/08 10:52:19;;;;;;;7.93;2.40;;;;;;;-146.64;100.00;118399.94;5053847;28;20030;-79
2022/06/08 10:54:53;;;;;;;7.10;2.30;;;;;;;-146.64;100.00;118399.94;5042780;28;20122;-79
2022/06/08 10:57:49;;;;;;;6.40;2.67;;;;;;;-146.64;100.00;118402.03;5067340;28;20119;-79
2022/06/08 11:00:21;;;;;;;6.55;2.17;;;;;;;-146.64;100.00;118402.03;5064356;28;20060;-79
2022/06/08 11:02:52;;;;;;;6.18;2.40;;;;;;;-146.64;100.00;118402.03;5070817;28;20040;-79
2022/06/08 11:05:28;;;;;;;6.85;1.70;;;;;;;-146.64;100.00;118402.03;5052767;28;20024;-79
2022/06/08 11:08:04;;;;;;;14.27;3.03;;;;;;;-146.64;100.00;118402.03;5052902;28;20024;-79
2022/06/08 11:10:53;;;;;;;9.38;2.40;;;;;;;-146.64;100.00;118402.03;5071818;28;20028;-79
2022/06/08 11:13:22;;;;;;;9.20;2.80;;;;;;;-146.64;100.00;118402.03;5070358;28;20086;-79
2022/06/08 11:15:53;;;;;;;8.52;2.53;;;;;;;-146.64;100.00;118402.03;5071084;28;20024;-80
2022/06/08 11:18:58;;;;;;;11.30;3.38;;;;;;;-146.64;100.00;118402.03;5052141;28;20062;-79
2022/06/08 11:21:41;;;;;;;8.52;2.45;;;;;;;-146.64;100.00;118402.03;5024249;28;20128;-79